Terminal Aerodrome Forecast
Issued by NWS

Home | Current Version | Previous Version | Text Only | Print | Product List | Glossary On
Versions: 1 2 3 4 5 6 7 8 9 10 11 12 13 14 15 16 17 18 19 20 21 22 23 24 25
000
FTUS44 KHGX 191420 AAB
TAFLBX
TAF AMD
KLBX 191420Z 1914/2012 13013KT P6SM SCT006 BKN026 OVC035
      TEMPO 1914/1916 BKN012 OVC025
     FM191800 14015G25KT P6SM SCT025 BKN035
     FM200200 13010KT 1 1/2SM BR OVC006
     FM200800 14012KT 1 1/2SM -SHRA BR SCT010 BKN025=

USA.gov is the U.S. government's official web portal to all federal, state and local government web resources and services.